Kollan Island, Australia
Current Conditions -  °F | °C
As of 4:00 PM on Thursday 29 Jan 2015 (Local Time) from YBRM Reporting Station
Scattered Clouds Scattered Clouds  
Wind Chill: 88°   Ceiling: Unl
Heat Index: 98°   Visibility: 6mi
Dew Point: 75°   Wind: 12mph
Humidity: 66%   Direction: 270°W
Pressure: 29.65"   Gusts: NA
Location:  16.11°S, 123.69°E
Report Text: YBRM 290800Z 27010KT 9999 SCT022 SCT400 31/24 Q1004
Loading
Personal Weather Stations






























Interactive Weather Map New forecast layout! Learn more

10-Day Weather Forecast

Advertisements
Track Severe Weather on mobile